createdAt,value
2019-05-29T00:00:35.695Z,9.70
2019-05-29T00:03:08.278Z,6.50
2019-05-29T00:05:36.915Z,5.53
2019-05-29T00:08:06.326Z,9.70
2019-05-29T00:10:34.968Z,5.07
2019-05-29T00:13:03.601Z,5.17
2019-05-29T00:15:32.196Z,5.03
2019-05-29T00:18:00.776Z,7.67
2019-05-29T00:20:29.361Z,8.73
2019-05-29T00:22:57.980Z,5.00
2019-05-29T00:25:26.998Z,6.23
2019-05-29T00:27:55.575Z,5.07
2019-05-29T00:30:25.651Z,5.30
2019-05-29T00:32:54.221Z,8.95
2019-05-29T00:35:22.763Z,6.50
2019-05-29T00:37:51.517Z,5.47
2019-05-29T00:40:20.411Z,5.20
2019-05-29T00:42:48.997Z,6.20
2019-05-29T00:45:18.373Z,4.77
2019-05-29T00:47:47.037Z,7.33
2019-05-29T00:50:16.179Z,6.97
2019-05-29T00:52:45.175Z,9.83
2019-05-29T00:55:14.705Z,5.43
2019-05-29T00:57:43.324Z,6.03
2019-05-29T01:00:13.266Z,5.27
2019-05-29T01:02:42.065Z,6.30
2019-05-29T01:05:11.992Z,7.60
2019-05-29T01:07:40.621Z,5.77
2019-05-29T01:10:10.627Z,3.93
2019-05-29T01:12:39.289Z,6.97
2019-05-29T01:15:08.327Z,6.87
2019-05-29T01:17:37.251Z,6.07
2019-05-29T01:20:07.470Z,4.77
2019-05-29T01:22:36.139Z,4.67
2019-05-29T01:25:06.437Z,5.87
2019-05-29T01:27:35.078Z,5.73
2019-05-29T01:30:05.145Z,4.70
2019-05-29T01:32:33.691Z,5.00
2019-05-29T01:35:02.442Z,4.70
2019-05-29T01:37:31.187Z,4.23
2019-05-29T01:39:59.788Z,5.30
2019-05-29T01:42:28.488Z,8.27
2019-05-29T01:45:07.288Z,5.37
2019-05-29T01:47:28.049Z,3.70
2019-05-29T01:49:56.828Z,4.53
2019-05-29T01:52:25.426Z,4.93
2019-05-29T01:54:53.986Z,5.60
2019-05-29T01:57:23.585Z,4.50
2019-05-29T01:59:52.440Z,5.53
2019-05-29T02:02:21.937Z,4.80
2019-05-29T02:04:50.777Z,5.13
2019-05-29T02:07:19.949Z,6.80
2019-05-29T02:09:48.686Z,6.17
2019-05-29T02:12:19.300Z,4.77
2019-05-29T02:14:47.863Z,6.37
2019-05-29T02:17:17.672Z,5.83
2019-05-29T02:19:46.382Z,5.80
2019-05-29T02:22:14.999Z,4.23
2019-05-29T02:24:43.931Z,5.67
2019-05-29T02:27:12.488Z,4.77
2019-05-29T02:29:41.129Z,4.87
2019-05-29T02:32:09.763Z,4.90
2019-05-29T02:34:38.356Z,5.00
2019-05-29T02:37:06.956Z,6.23
2019-05-29T02:39:35.536Z,5.83
2019-05-29T02:42:04.356Z,5.60
2019-05-29T02:44:33.207Z,6.50
2019-05-29T02:47:01.830Z,4.90
2019-05-29T02:49:30.585Z,4.40
2019-05-29T02:51:59.491Z,6.33
2019-05-29T02:54:30.077Z,5.30
2019-05-29T02:56:58.282Z,4.17
2019-05-29T02:59:27.587Z,5.23
2019-05-29T03:01:56.803Z,4.60
2019-05-29T03:04:26.261Z,3.93
2019-05-29T03:06:55.523Z,4.40
2019-05-29T03:09:24.783Z,5.90
2019-05-29T03:12:00.027Z,4.37
2019-05-29T03:14:27.243Z,6.20
2019-05-29T03:16:55.995Z,5.57
2019-05-29T03:19:25.958Z,4.20
2019-05-29T03:21:54.957Z,5.37
2019-05-29T03:24:24.516Z,4.13
2019-05-29T03:26:53.188Z,4.80
2019-05-29T03:29:21.800Z,4.40
2019-05-29T03:31:50.401Z,6.47
2019-05-29T03:34:18.943Z,4.40
2019-05-29T03:36:48.833Z,4.40
2019-05-29T03:39:17.875Z,4.40
2019-05-29T03:41:46.467Z,6.50
2019-05-29T03:44:15.370Z,4.80
2019-05-29T03:46:45.884Z,4.63
2019-05-29T03:49:14.242Z,5.03
2019-05-29T03:51:42.913Z,4.50
2019-05-29T03:54:11.502Z,4.40
2019-05-29T03:56:40.085Z,4.13
2019-05-29T03:59:08.658Z,4.77
2019-05-29T04:01:37.541Z,6.07
2019-05-29T04:04:06.513Z,5.57
2019-05-29T04:06:35.605Z,5.07
2019-05-29T04:09:06.499Z,4.40
2019-05-29T04:11:37.935Z,4.67
2019-05-29T04:14:06.705Z,5.50
2019-05-29T04:16:52.823Z,6.33
2019-05-29T04:19:06.764Z,4.60
2019-05-29T04:21:38.434Z,4.23
2019-05-29T04:24:07.864Z,6.63
2019-05-29T04:26:43.985Z,5.47
2019-05-29T04:29:13.604Z,4.43
2019-05-29T04:31:42.195Z,7.17
2019-05-29T04:34:10.770Z,4.17
2019-05-29T04:36:39.350Z,7.23
2019-05-29T04:39:08.003Z,4.17
2019-05-29T04:41:37.110Z,8.60
2019-05-29T04:44:06.178Z,6.20
2019-05-29T04:46:36.470Z,5.20
2019-05-29T04:49:04.971Z,5.37
2019-05-29T04:51:35.420Z,5.10
2019-05-29T04:54:04.211Z,4.33
2019-05-29T04:56:32.839Z,5.07
2019-05-29T04:59:01.358Z,3.33
2019-05-29T05:01:30.891Z,3.50
2019-05-29T05:03:59.549Z,5.50
2019-05-29T05:06:29.112Z,4.33
2019-05-29T05:08:57.750Z,4.40
2019-05-29T05:11:26.409Z,5.20
2019-05-29T05:13:55.117Z,3.67
2019-05-29T05:16:23.814Z,3.70
2019-05-29T05:18:52.406Z,3.67
2019-05-29T05:21:21.096Z,5.83
2019-05-29T05:23:49.680Z,3.10
2019-05-29T05:26:18.604Z,3.98
2019-05-29T05:28:47.428Z,3.20
2019-05-29T05:31:16.160Z,4.37
2019-05-29T05:33:44.743Z,3.47
2019-05-29T05:36:13.383Z,4.27
2019-05-29T05:38:41.942Z,3.10
2019-05-29T05:41:10.584Z,3.13
2019-05-29T05:43:39.495Z,3.27
2019-05-29T05:46:08.075Z,3.53
2019-05-29T05:48:37.127Z,3.03
2019-05-29T05:51:05.920Z,5.37
2019-05-29T05:53:35.383Z,3.03
2019-05-29T05:56:04.095Z,3.87
2019-05-29T05:58:33.789Z,4.13
2019-05-29T06:01:02.424Z,4.07
2019-05-29T06:03:31.822Z,7.27
2019-05-29T06:06:00.555Z,5.00
2019-05-29T06:08:29.133Z,3.20
2019-05-29T06:10:57.685Z,6.93
2019-05-29T06:13:26.301Z,5.47
2019-05-29T06:15:55.175Z,4.30
2019-05-29T06:18:23.746Z,5.73
2019-05-29T06:20:52.306Z,4.17
2019-05-29T06:23:20.889Z,3.60
2019-05-29T06:25:49.525Z,2.87
2019-05-29T06:28:18.095Z,4.27
2019-05-29T06:30:46.688Z,5.30
2019-05-29T06:33:15.245Z,4.00
2019-05-29T06:35:43.873Z,4.57
2019-05-29T06:38:12.492Z,3.00
2019-05-29T06:40:44.048Z,3.53
2019-05-29T06:43:24.850Z,5.60
2019-05-29T06:45:54.568Z,4.13
2019-05-29T06:48:42.410Z,4.73
2019-05-29T06:51:00.681Z,3.30
2019-05-29T06:53:29.322Z,4.10
2019-05-29T06:55:59.141Z,3.20
2019-05-29T06:58:28.198Z,3.70
2019-05-29T07:00:56.763Z,3.03
2019-05-29T07:03:25.422Z,3.50
2019-05-29T07:05:54.103Z,2.47
2019-05-29T07:08:37.408Z,3.97
2019-05-29T07:10:53.338Z,6.77
2019-05-29T07:13:21.924Z,3.40
2019-05-29T07:15:50.658Z,2.60
2019-05-29T07:18:19.398Z,4.40
2019-05-29T07:20:47.978Z,3.17
2019-05-29T07:23:16.581Z,3.57
2019-05-29T07:25:45.702Z,5.37
2019-05-29T07:28:14.470Z,2.90
2019-05-29T07:30:49.628Z,2.20
2019-05-29T07:33:13.360Z,2.20
2019-05-29T07:35:41.912Z,2.93
2019-05-29T07:38:10.896Z,2.47
2019-05-29T07:40:40.700Z,3.80
2019-05-29T07:43:09.725Z,2.43
2019-05-29T07:45:38.309Z,2.47
2019-05-29T07:48:07.029Z,2.50
2019-05-29T07:50:35.602Z,2.30
2019-05-29T07:53:04.366Z,2.67
2019-05-29T07:55:32.926Z,3.13
2019-05-29T07:58:01.581Z,2.13
2019-05-29T08:00:35.758Z,4.33
2019-05-29T08:03:00.387Z,2.65
2019-05-29T08:05:28.967Z,4.97
2019-05-29T08:07:57.533Z,2.43
2019-05-29T08:10:26.223Z,2.60
2019-05-29T08:12:55.945Z,2.33
2019-05-29T08:15:24.755Z,2.50
2019-05-29T08:17:53.348Z,3.00
2019-05-29T08:20:22.029Z,3.17
2019-05-29T08:22:50.924Z,2.17
2019-05-29T08:25:19.933Z,2.57
2019-05-29T08:27:48.903Z,1.90
2019-05-29T08:30:18.331Z,3.10
2019-05-29T08:32:47.054Z,3.13
2019-05-29T08:35:16.159Z,3.67
2019-05-29T08:37:45.005Z,2.27
2019-05-29T08:40:14.186Z,2.03
2019-05-29T08:42:43.215Z,1.70
2019-05-29T08:45:12.375Z,2.35
2019-05-29T08:47:41.480Z,1.90
2019-05-29T08:50:18.582Z,2.37
2019-05-29T08:52:42.135Z,2.93
2019-05-29T08:55:13.710Z,4.00
2019-05-29T08:57:42.531Z,2.33
2019-05-29T09:00:12.178Z,1.33
2019-05-29T09:02:40.866Z,2.70
2019-05-29T09:05:10.122Z,2.67
2019-05-29T09:07:38.890Z,2.73
2019-05-29T09:10:09.382Z,3.40
2019-05-29T09:12:37.982Z,2.37
2019-05-29T09:15:09.469Z,1.90
2019-05-29T09:17:38.509Z,1.60
2019-05-29T09:20:25.470Z,3.17
2019-05-29T09:22:38.240Z,1.83
2019-05-29T09:25:07.750Z,3.67
2019-05-29T09:27:36.347Z,1.87
2019-05-29T09:30:06.872Z,3.53
2019-05-29T09:32:49.331Z,3.13
2019-05-29T09:35:06.626Z,2.60
2019-05-29T09:37:35.254Z,1.30
2019-05-29T09:40:05.558Z,1.83
2019-05-29T09:42:34.155Z,2.50
2019-05-29T09:45:02.793Z,1.47
2019-05-29T09:47:31.426Z,1.73
2019-05-29T09:50:00.382Z,5.73
2019-05-29T09:52:30.806Z,1.80
2019-05-29T09:55:00.297Z,1.20
2019-05-29T09:57:29.081Z,2.90
2019-05-29T09:59:59.551Z,3.27
2019-05-29T10:02:27.891Z,2.30
2019-05-29T10:04:57.851Z,2.20
2019-05-29T10:07:26.770Z,3.05
2019-05-29T10:09:56.841Z,2.50
2019-05-29T10:12:25.578Z,1.57
2019-05-29T10:14:55.745Z,1.60
2019-05-29T10:17:24.395Z,3.50
2019-05-29T10:19:53.038Z,1.20
2019-05-29T10:22:21.630Z,1.50
2019-05-29T10:24:50.247Z,1.10
2019-05-29T10:27:18.834Z,1.40
2019-05-29T10:29:51.051Z,1.40
2019-05-29T10:32:17.670Z,1.20
2019-05-29T10:34:46.391Z,1.20
2019-05-29T10:37:17.971Z,1.57
2019-05-29T10:39:46.662Z,1.20
2019-05-29T10:42:15.325Z,1.50
2019-05-29T10:44:44.846Z,1.73
2019-05-29T10:47:13.513Z,3.30
2019-05-29T10:49:43.517Z,1.40
2019-05-29T10:52:16.646Z,2.40
2019-05-29T10:54:42.544Z,1.72
2019-05-29T10:57:11.123Z,1.30
2019-05-29T10:59:39.731Z,2.93
2019-05-29T11:02:08.898Z,2.13
2019-05-29T11:04:37.470Z,1.00
2019-05-29T11:07:06.058Z,1.93
2019-05-29T11:09:44.079Z,0.90
2019-05-29T11:12:05.476Z,1.77
2019-05-29T11:14:34.057Z,1.73
2019-05-29T11:17:02.678Z,1.50
2019-05-29T11:19:31.246Z,1.30
2019-05-29T11:22:16.265Z,2.97
2019-05-29T11:24:30.173Z,2.47
2019-05-29T11:26:59.068Z,3.40
2019-05-29T11:29:27.751Z,1.20
2019-05-29T11:31:57.046Z,1.57
2019-05-29T11:34:25.950Z,1.50
2019-05-29T11:36:54.598Z,1.63
2019-05-29T11:39:23.194Z,0.97
2019-05-29T11:41:52.690Z,1.77
2019-05-29T11:44:21.299Z,2.43
2019-05-29T11:46:50.224Z,1.30
2019-05-29T11:49:18.961Z,1.67
2019-05-29T11:51:47.552Z,2.93
2019-05-29T11:54:16.167Z,1.73
2019-05-29T11:56:44.737Z,2.93
2019-05-29T11:59:13.333Z,1.63
2019-05-29T12:01:50.427Z,1.23
2019-05-29T12:04:25.788Z,1.40
2019-05-29T12:06:42.519Z,2.20
2019-05-29T12:09:11.341Z,1.23
2019-05-29T12:11:40.834Z,1.73
2019-05-29T12:14:09.571Z,2.27
2019-05-29T12:16:38.146Z,1.83
2019-05-29T12:19:06.884Z,1.47
2019-05-29T12:21:35.464Z,0.97
2019-05-29T12:24:04.779Z,1.10
2019-05-29T12:26:33.346Z,1.97
2019-05-29T12:29:09.171Z,3.27
2019-05-29T12:31:32.317Z,3.17
2019-05-29T12:34:13.281Z,1.43
2019-05-29T12:36:31.343Z,2.30
2019-05-29T12:38:59.914Z,1.07
2019-05-29T12:41:28.513Z,2.00
2019-05-29T12:43:57.535Z,1.27
2019-05-29T12:46:26.158Z,2.10
2019-05-29T12:48:55.338Z,1.03
2019-05-29T12:51:23.930Z,1.43
2019-05-29T12:53:53.858Z,0.97
2019-05-29T12:56:22.587Z,2.30
2019-05-29T12:58:51.242Z,1.63
2019-05-29T13:01:19.813Z,1.60
2019-05-29T13:03:48.405Z,1.43
2019-05-29T13:06:16.997Z,1.30
2019-05-29T13:08:45.568Z,2.10
2019-05-29T13:11:14.148Z,1.83
2019-05-29T13:13:42.743Z,0.97
2019-05-29T13:16:11.307Z,1.60
2019-05-29T13:18:39.900Z,1.67
2019-05-29T13:21:08.534Z,2.30
2019-05-29T13:23:45.014Z,2.43
2019-05-29T13:26:07.618Z,1.00
2019-05-29T13:28:36.199Z,1.73
2019-05-29T13:31:06.753Z,1.73
2019-05-29T13:33:35.410Z,2.23
2019-05-29T13:36:04.544Z,3.77
2019-05-29T13:38:33.543Z,3.67
2019-05-29T13:41:02.636Z,1.97
2019-05-29T13:43:31.337Z,2.80
2019-05-29T13:46:00.475Z,2.53
2019-05-29T13:48:29.029Z,1.30
2019-05-29T13:50:59.541Z,2.80
2019-05-29T13:53:27.920Z,1.27
2019-05-29T13:55:57.678Z,1.73
2019-05-29T13:58:26.389Z,2.97
2019-05-29T14:00:54.978Z,1.67
2019-05-29T14:03:23.590Z,0.70
2019-05-29T14:05:52.731Z,1.00
2019-05-29T14:08:21.734Z,2.37
2019-05-29T14:10:50.301Z,1.77
2019-05-29T14:13:18.893Z,1.50
2019-05-29T14:15:47.467Z,1.77
2019-05-29T14:18:16.196Z,1.13
2019-05-29T14:20:44.767Z,1.17
2019-05-29T14:23:13.363Z,1.67
2019-05-29T14:25:41.998Z,2.87
2019-05-29T14:28:10.722Z,1.23
2019-05-29T14:30:39.357Z,2.10
2019-05-29T14:33:12.442Z,1.00
2019-05-29T14:35:38.317Z,1.73
2019-05-29T14:38:09.914Z,4.00
2019-05-29T14:40:37.475Z,1.63
2019-05-29T14:43:08.545Z,2.47
2019-05-29T14:45:36.353Z,1.37
2019-05-29T14:48:06.146Z,3.10
2019-05-29T14:50:34.880Z,1.40
2019-05-29T14:53:04.920Z,1.33
2019-05-29T14:55:33.694Z,1.00
2019-05-29T14:58:03.542Z,1.10
2019-05-29T15:00:32.389Z,2.70
2019-05-29T15:03:01.256Z,2.87
2019-05-29T15:05:29.822Z,1.00
2019-05-29T15:07:58.420Z,3.50
2019-05-29T15:10:27.897Z,2.63
2019-05-29T15:12:58.219Z,1.37
2019-05-29T15:15:27.194Z,1.23
2019-05-29T15:17:55.867Z,2.20
2019-05-29T15:20:24.682Z,1.20
2019-05-29T15:22:53.317Z,2.00
2019-05-29T15:25:24.308Z,2.80
2019-05-29T15:27:52.227Z,1.43
2019-05-29T15:30:23.518Z,2.40
2019-05-29T15:32:51.542Z,2.03
2019-05-29T15:35:20.854Z,4.30
2019-05-29T15:37:49.428Z,2.10
2019-05-29T15:40:18.363Z,1.67
2019-05-29T15:42:46.939Z,9.90
2019-05-29T15:45:16.150Z,2.87
2019-05-29T15:47:44.736Z,4.90
2019-05-29T15:50:15.933Z,4.03
2019-05-29T15:52:44.343Z,2.83
2019-05-29T15:55:29.622Z,1.70
2019-05-29T15:57:44.427Z,1.57
2019-05-29T16:00:15.664Z,2.40
2019-05-29T16:02:48.363Z,2.03
2019-05-29T16:05:15.546Z,1.13
2019-05-29T16:07:44.485Z,2.00
2019-05-29T16:10:16.699Z,2.77
2019-05-29T16:12:44.453Z,1.20
2019-05-29T16:15:15.113Z,1.30
2019-05-29T16:17:44.202Z,1.10
2019-05-29T16:20:14.837Z,3.40
2019-05-29T16:22:43.574Z,1.03
2019-05-29T16:25:14.972Z,1.00
2019-05-29T16:27:43.647Z,1.73
2019-05-29T16:30:13.640Z,2.67
2019-05-29T16:32:42.496Z,1.23
2019-05-29T16:35:12.946Z,1.20
2019-05-29T16:37:41.809Z,1.63
2019-05-29T16:40:12.112Z,2.13
2019-05-29T16:42:40.695Z,3.10
2019-05-29T16:45:10.532Z,2.10
2019-05-29T16:47:39.670Z,1.40
2019-05-29T16:50:12.938Z,1.20
2019-05-29T16:52:41.667Z,1.30
2019-05-29T16:55:10.673Z,2.73
2019-05-29T16:57:39.273Z,1.20
2019-05-29T17:00:09.485Z,3.23
2019-05-29T17:02:38.789Z,1.57
2019-05-29T17:05:08.242Z,1.77
2019-05-29T17:07:36.811Z,1.37
2019-05-29T17:10:07.617Z,2.67
2019-05-29T17:12:36.198Z,1.73
2019-05-29T17:15:12.892Z,3.37
2019-05-29T17:17:41.465Z,1.97
2019-05-29T17:20:10.872Z,3.27
2019-05-29T17:22:39.531Z,2.57
2019-05-29T17:25:08.646Z,0.90
2019-05-29T17:27:37.223Z,1.33
2019-05-29T17:30:08.030Z,1.70
2019-05-29T17:32:36.611Z,1.40
2019-05-29T17:35:08.296Z,2.40
2019-05-29T17:37:37.501Z,6.13
2019-05-29T17:40:07.800Z,1.60
2019-05-29T17:42:36.401Z,2.80
2019-05-29T17:45:12.734Z,2.77
2019-05-29T17:47:41.826Z,2.77
2019-05-29T17:50:10.675Z,2.67
2019-05-29T17:52:39.327Z,2.23
2019-05-29T17:55:09.234Z,1.73
2019-05-29T17:57:37.865Z,1.10
2019-05-29T18:00:12.413Z,1.67
2019-05-29T18:02:51.599Z,2.30
2019-05-29T18:05:11.581Z,2.30
2019-05-29T18:07:40.242Z,1.90
2019-05-29T18:10:10.172Z,2.43
2019-05-29T18:12:38.988Z,1.37
2019-05-29T18:15:08.595Z,2.07
2019-05-29T18:17:37.239Z,1.37
2019-05-29T18:20:08.147Z,0.90
2019-05-29T18:22:36.787Z,1.00
2019-05-29T18:25:09.073Z,4.17
2019-05-29T18:27:37.662Z,1.10
2019-05-29T18:30:08.238Z,3.23
2019-05-29T18:32:37.827Z,2.40
2019-05-29T18:35:10.103Z,3.73
2019-05-29T18:37:38.950Z,2.53
2019-05-29T18:40:12.254Z,1.30
2019-05-29T18:42:39.118Z,2.03
2019-05-29T18:45:20.218Z,2.53
2019-05-29T18:47:40.487Z,2.90
2019-05-29T18:50:11.191Z,1.90
2019-05-29T18:52:40.210Z,2.40
2019-05-29T18:55:09.535Z,2.97
2019-05-29T18:57:38.122Z,2.30
2019-05-29T19:00:11.424Z,1.97
2019-05-29T19:02:40.043Z,2.33
2019-05-29T19:05:09.101Z,1.87
2019-05-29T19:07:38.054Z,2.33
2019-05-29T19:10:07.772Z,2.30
2019-05-29T19:12:36.793Z,3.40
2019-05-29T19:15:08.846Z,2.23
2019-05-29T19:17:38.149Z,3.00
2019-05-29T19:20:07.440Z,2.70
2019-05-29T19:22:36.457Z,3.30
2019-05-29T19:25:06.478Z,4.20
2019-05-29T19:27:41.656Z,4.57
2019-05-29T19:30:08.206Z,4.00
2019-05-29T19:32:36.777Z,3.10
2019-05-29T19:35:09.730Z,2.40
2019-05-29T19:37:38.795Z,2.60
2019-05-29T19:40:08.592Z,2.45
2019-05-29T19:42:37.707Z,2.43
2019-05-29T19:45:08.763Z,3.90
2019-05-29T19:47:37.643Z,2.77
2019-05-29T19:50:10.852Z,1.67
2019-05-29T19:52:38.081Z,2.00
2019-05-29T19:55:07.770Z,3.47
2019-05-29T19:57:52.427Z,3.27
2019-05-29T20:00:10.282Z,2.10
2019-05-29T20:02:40.112Z,2.50
2019-05-29T20:05:09.289Z,2.23
2019-05-29T20:07:38.993Z,2.03
2019-05-29T20:10:10.140Z,3.30
2019-05-29T20:12:40.826Z,3.10
2019-05-29T20:15:10.623Z,2.80
2019-05-29T20:17:39.578Z,2.33
2019-05-29T20:20:09.179Z,1.70
2019-05-29T20:22:39.111Z,2.63
2019-05-29T20:25:08.545Z,1.70
2019-05-29T20:27:38.349Z,2.83
2019-05-29T20:30:09.719Z,2.00
2019-05-29T20:32:38.941Z,1.80
2019-05-29T20:35:08.137Z,1.83
2019-05-29T20:37:36.799Z,2.03
2019-05-29T20:40:08.857Z,1.77
2019-05-29T20:42:38.466Z,5.03
2019-05-29T20:45:08.310Z,2.07
2019-05-29T20:47:38.014Z,2.03
2019-05-29T20:50:08.593Z,2.67
2019-05-29T20:52:37.389Z,3.50
2019-05-29T20:55:06.827Z,1.90
2019-05-29T20:57:35.863Z,2.60
2019-05-29T21:00:08.089Z,1.70
2019-05-29T21:02:36.661Z,1.50
2019-05-29T21:05:06.958Z,1.67
2019-05-29T21:07:36.610Z,1.70
2019-05-29T21:10:06.115Z,1.73
2019-05-29T21:12:35.217Z,1.60
2019-05-29T21:15:05.214Z,1.80
2019-05-29T21:17:33.839Z,2.20
2019-05-29T21:20:02.422Z,1.60
2019-05-29T21:22:31.027Z,2.30
2019-05-29T21:25:06.749Z,2.87
2019-05-29T21:27:29.898Z,2.60
2019-05-29T21:29:58.470Z,2.07
2019-05-29T21:32:27.074Z,2.13
2019-05-29T21:34:55.646Z,1.70
2019-05-29T21:37:24.500Z,1.47
2019-05-29T21:39:53.082Z,3.47
2019-05-29T21:42:21.735Z,2.73
2019-05-29T21:44:50.311Z,3.00
2019-05-29T21:47:19.248Z,3.47
2019-05-29T21:49:47.829Z,2.13
2019-05-29T21:52:16.405Z,2.47
2019-05-29T21:54:45.709Z,1.73
2019-05-29T21:57:14.272Z,2.13
2019-05-29T21:59:43.797Z,2.03
2019-05-29T22:02:12.803Z,2.07
2019-05-29T22:04:42.259Z,2.03
2019-05-29T22:07:11.292Z,2.20
2019-05-29T22:09:39.898Z,2.23
2019-05-29T22:12:08.811Z,2.10
2019-05-29T22:14:37.369Z,2.20
2019-05-29T22:17:06.094Z,2.30
2019-05-29T22:19:34.654Z,3.10
2019-05-29T22:22:03.243Z,2.53
2019-05-29T22:24:32.286Z,3.03
2019-05-29T22:27:01.548Z,2.10
2019-05-29T22:29:30.313Z,3.90
2019-05-29T22:31:59.537Z,2.90
2019-05-29T22:34:28.239Z,2.60
2019-05-29T22:36:57.508Z,2.30
2019-05-29T22:39:26.170Z,2.53
2019-05-29T22:41:55.615Z,2.90
2019-05-29T22:44:24.225Z,2.73
2019-05-29T22:46:53.690Z,3.37
2019-05-29T22:49:22.392Z,2.40
2019-05-29T22:51:51.701Z,2.90
2019-05-29T22:54:20.298Z,3.03
2019-05-29T22:56:48.885Z,2.30
2019-05-29T22:59:31.088Z,5.17
2019-05-29T23:01:47.685Z,2.43
2019-05-29T23:04:16.260Z,3.00
2019-05-29T23:06:44.852Z,2.43
2019-05-29T23:09:13.418Z,3.63
2019-05-29T23:11:42.421Z,2.00
2019-05-29T23:14:11.014Z,2.53
2019-05-29T23:16:39.687Z,2.03
2019-05-29T23:19:08.267Z,2.17
2019-05-29T23:21:36.852Z,3.30
2019-05-29T23:24:05.582Z,3.90
2019-05-29T23:26:34.166Z,2.37
2019-05-29T23:29:03.895Z,2.62
2019-05-29T23:31:32.635Z,5.23
2019-05-29T23:34:01.205Z,3.23
2019-05-29T23:36:29.765Z,2.70
2019-05-29T23:38:59.293Z,2.00
2019-05-29T23:41:27.917Z,2.30
2019-05-29T23:43:57.430Z,2.40
2019-05-29T23:46:26.043Z,2.00
2019-05-29T23:48:55.436Z,2.00
2019-05-29T23:51:24.199Z,3.03
2019-05-29T23:53:53.627Z,2.97
2019-05-29T23:56:22.154Z,5.87
2019-05-29T23:58:50.747Z,2.50
